Lincoln Hwy 8

*Note: All times are displayed in the local standard time of the station location.
**Rain - Equipment is designed to accurately record liquid precipitation; under conditions when precipitation is not in liquid form, the data displayed may not properly reflect rainfall values.

Date Max Temp
(°C)
Min Temp
(°C)
Avg Temp
(°C)
Rain (mm) Avg RH (%)
Tue, Jul 16, 2019 33.3 21.7 26.2 6.2 67.8
Mon, Jul 15, 2019 30.4 14.7 22.4 0.0 66.6
Sun, Jul 14, 2019 28.1 16.5 23.1 0.0 58.0
Sat, Jul 13, 2019 30.4 16.1 23.8 0.0 70.1
Fri, Jul 12, 2019 23.0 16.1 19.7 0.0 75.5
Thu, Jul 11, 2019 30.8 18.9 24.5 8.8 73.5
Wed, Jul 10, 2019 28.0 14.0 22.2 0.0 73.1
DateTime Avg Temp (°C) Rain (mm) RH (%)
Wed, Jul 17, 2019 04:00 22.3 0.0 94.2
Wed, Jul 17, 2019 03:00 22.3 0.2 93.9
Wed, Jul 17, 2019 02:00 22.7 0.0 91.7
Wed, Jul 17, 2019 01:00 22.7 0.2 91.9
Wed, Jul 17, 2019 00:00 22.8 0.6 92.1
Tue, Jul 16, 2019 23:00 23.5 0.4 87.2
Tue, Jul 16, 2019 22:00 24.9 0.0 77.7
Tue, Jul 16, 2019 21:00 25.7 0.0 70.4
Tue, Jul 16, 2019 20:00 26.4 0.0 67.4
Tue, Jul 16, 2019 19:00 26.5 0.0 65.8
Tue, Jul 16, 2019 18:00 27.6 0.0 60.1
Tue, Jul 16, 2019 17:00 28.7 0.0 59.0
Tue, Jul 16, 2019 16:00 30.5 0.0 58.4
Tue, Jul 16, 2019 15:00 28.4 0.0 71.5
Tue, Jul 16, 2019 14:00 28.1 5.2 69.2
Tue, Jul 16, 2019 13:00 32.4 0.0 44.6
Tue, Jul 16, 2019 12:00 32.5 0.0 43.6
Tue, Jul 16, 2019 11:00 31.2 0.0 48.7
Tue, Jul 16, 2019 10:00 29.6 0.0 60.1
Tue, Jul 16, 2019 09:00 26.9 0.0 73.8
Tue, Jul 16, 2019 08:00 24.8 0.0 81.8
Tue, Jul 16, 2019 07:00 22.9 0.0 87.1
Tue, Jul 16, 2019 06:00 22.6 0.0 86.1
Tue, Jul 16, 2019 05:00 22.8 0.0 82.5
Tue, Jul 16, 2019 04:00 22.3 0.0 73.4
Tue, Jul 16, 2019 03:00 23.2 0.0 58.0
Tue, Jul 16, 2019 02:00 22.5 0.0 54.1
Tue, Jul 16, 2019 01:00 21.9 0.0 55.1
Tue, Jul 16, 2019 00:00 22.0 0.0 59.2
Mon, Jul 15, 2019 23:00 22.6 0.0 55.6
Mon, Jul 15, 2019 22:00 23.2 0.0 52.4
Mon, Jul 15, 2019 21:00 24.1 0.0 51.8
Mon, Jul 15, 2019 20:00 25.8 0.0 49.7
Mon, Jul 15, 2019 19:00 27.0 0.0 47.8
Mon, Jul 15, 2019 18:00 29.9 0.0 40.6
Mon, Jul 15, 2019 17:00 30.0 0.0 41.4
Mon, Jul 15, 2019 16:00 27.5 0.0 53.3
Mon, Jul 15, 2019 15:00 26.5 0.0 54.4
Mon, Jul 15, 2019 14:00 25.7 0.0 58.2
Mon, Jul 15, 2019 13:00 25.1 0.0 61.8
Mon, Jul 15, 2019 12:00 24.2 0.0 64.1
Mon, Jul 15, 2019 11:00 23.2 0.0 66.7
Mon, Jul 15, 2019 10:00 22.2 0.0 67.3
Mon, Jul 15, 2019 09:00 21.1 0.0 70.4
Mon, Jul 15, 2019 08:00 20.1 0.0 75.7
Mon, Jul 15, 2019 07:00 16.7 0.0 90.1
Mon, Jul 15, 2019 06:00 14.8 0.0 94.2
Mon, Jul 15, 2019 05:00 15.5 0.0 92.5


asterix Register now to access more data! asterix